createdAt,value
2023-03-02T00:01:50.337Z,1.67
2023-03-02T00:04:21.872Z,2.10
2023-03-02T00:06:52.534Z,2.30
2023-03-02T00:09:21.519Z,3.00
2023-03-02T00:11:52.350Z,2.58
2023-03-02T00:14:21.469Z,2.50
2023-03-02T00:16:50.430Z,2.88
2023-03-02T00:19:19.620Z,2.80
2023-03-02T00:21:48.689Z,2.90
2023-03-02T00:24:17.589Z,2.60
2023-03-02T00:26:46.486Z,3.13
2023-03-02T00:29:16.875Z,3.20
2023-03-02T00:31:46.088Z,3.83
2023-03-02T00:34:16.956Z,3.03
2023-03-02T00:36:49.386Z,3.23
2023-03-02T00:39:20.406Z,3.40
2023-03-02T00:41:49.809Z,2.97
2023-03-02T00:44:20.113Z,4.18
2023-03-02T00:46:49.159Z,4.75
2023-03-02T00:49:18.317Z,3.55
2023-03-02T00:51:47.243Z,3.85
2023-03-02T00:54:16.230Z,4.63
2023-03-02T00:56:45.802Z,3.88
2023-03-02T00:59:26.388Z,4.25
2023-03-02T01:02:07.084Z,4.40
2023-03-02T01:04:37.793Z,4.18
2023-03-02T01:07:10.816Z,4.55
2023-03-02T01:09:40.022Z,3.92
2023-03-02T01:12:11.285Z,4.57
2023-03-02T01:14:41.311Z,4.35
2023-03-02T01:17:13.067Z,4.97
2023-03-02T01:19:42.510Z,4.05
2023-03-02T01:22:12.193Z,4.97
2023-03-02T01:24:41.435Z,4.65
2023-03-02T01:27:10.846Z,6.63
2023-03-02T01:29:40.093Z,4.75
2023-03-02T01:32:09.371Z,4.95
2023-03-02T01:34:40.617Z,6.07
2023-03-02T01:37:09.881Z,5.70
2023-03-02T01:39:39.142Z,5.82
2023-03-02T01:42:08.366Z,5.55
2023-03-02T01:44:39.779Z,5.60
2023-03-02T01:47:14.001Z,6.63
2023-03-02T01:49:53.034Z,5.78
2023-03-02T01:52:24.020Z,5.78
2023-03-02T01:54:54.608Z,5.45
2023-03-02T01:57:26.145Z,5.38
2023-03-02T01:59:59.584Z,6.85
2023-03-02T02:02:28.856Z,6.80
2023-03-02T02:04:59.629Z,7.22
2023-03-02T02:07:29.199Z,5.83
2023-03-02T02:09:59.485Z,6.38
2023-03-02T02:12:28.656Z,5.70
2023-03-02T02:15:00.729Z,7.85
2023-03-02T02:17:30.606Z,5.95
2023-03-02T02:20:07.882Z,7.20
2023-03-02T02:22:42.716Z,6.53
2023-03-02T02:25:18.925Z,6.68
2023-03-02T02:27:49.306Z,5.80
2023-03-02T02:30:18.541Z,6.15
2023-03-02T02:32:49.374Z,6.50
2023-03-02T02:35:20.125Z,7.05
2023-03-02T02:37:51.417Z,6.50
2023-03-02T02:40:23.578Z,7.97
2023-03-02T02:42:54.927Z,8.60
2023-03-02T02:45:24.899Z,7.30
2023-03-02T02:47:55.650Z,6.60
2023-03-02T02:50:26.911Z,7.22
2023-03-02T02:52:58.997Z,7.65
2023-03-02T02:55:28.663Z,7.30
2023-03-02T02:58:00.924Z,7.22
2023-03-02T03:00:31.045Z,8.38
2023-03-02T03:03:01.967Z,8.27
2023-03-02T03:05:31.096Z,7.55
2023-03-02T03:08:18.196Z,7.22
2023-03-02T03:10:47.421Z,6.97
2023-03-02T03:13:17.793Z,9.00
2023-03-02T03:15:46.830Z,7.40
2023-03-02T03:18:15.801Z,9.52
2023-03-02T03:20:45.432Z,8.20
2023-03-02T03:23:14.727Z,8.02
2023-03-02T03:25:44.495Z,8.23
2023-03-02T03:28:13.592Z,8.77
2023-03-02T03:30:44.036Z,8.90
2023-03-02T03:33:13.014Z,8.05
2023-03-02T03:35:42.409Z,7.97
2023-03-02T03:38:12.125Z,8.15
2023-03-02T03:40:41.145Z,7.65
2023-03-02T03:43:10.319Z,8.05
2023-03-02T03:45:39.771Z,8.98
2023-03-02T03:48:11.111Z,8.82
2023-03-02T03:50:40.165Z,8.80
2023-03-02T03:53:09.324Z,9.88
2023-03-02T03:55:38.489Z,8.18
2023-03-02T03:58:07.440Z,8.98
2023-03-02T04:00:36.892Z,9.50
2023-03-02T04:03:12.138Z,8.40
2023-03-02T04:05:41.343Z,9.38
2023-03-02T04:08:11.065Z,8.32
2023-03-02T04:10:41.200Z,7.97
2023-03-02T04:13:10.457Z,10.30
2023-03-02T04:15:41.885Z,8.20
2023-03-02T04:18:12.549Z,8.32
2023-03-02T04:20:41.612Z,9.68
2023-03-02T04:23:10.918Z,8.60
2023-03-02T04:25:39.889Z,7.97
2023-03-02T04:28:17.672Z,8.55
2023-03-02T04:30:47.472Z,9.48
2023-03-02T04:33:18.294Z,8.55
2023-03-02T04:35:50.531Z,7.68
2023-03-02T04:38:19.487Z,8.48
2023-03-02T04:40:48.428Z,8.15
2023-03-02T04:43:17.400Z,9.57
2023-03-02T04:45:46.300Z,9.85
2023-03-02T04:48:15.632Z,9.38
2023-03-02T04:50:45.926Z,8.98
2023-03-02T04:53:14.933Z,9.25
2023-03-02T04:55:43.907Z,8.48
2023-03-02T04:58:12.836Z,8.65
2023-03-02T05:00:41.993Z,9.88
2023-03-02T05:03:10.959Z,10.15
2023-03-02T05:05:39.984Z,11.85
2023-03-02T05:08:10.379Z,10.25
2023-03-02T05:10:39.381Z,8.57
2023-03-02T05:13:08.424Z,9.75
2023-03-02T05:15:38.495Z,9.77
2023-03-02T05:18:10.028Z,9.60
2023-03-02T05:20:39.344Z,10.25
2023-03-02T05:23:10.556Z,10.35
2023-03-02T05:25:40.037Z,10.50
2023-03-02T05:28:08.918Z,10.32
2023-03-02T05:30:38.177Z,10.52
2023-03-02T05:33:07.409Z,10.68
2023-03-02T05:35:36.612Z,10.52
2023-03-02T05:38:06.191Z,11.45
2023-03-02T05:40:37.026Z,11.38
2023-03-02T05:43:06.382Z,10.83
2023-03-02T05:45:36.719Z,10.55
2023-03-02T05:48:06.249Z,10.73
2023-03-02T05:50:37.622Z,11.23
2023-03-02T05:53:06.590Z,11.20
2023-03-02T05:55:37.707Z,12.18
2023-03-02T05:58:09.015Z,11.75
2023-03-02T06:00:38.170Z,10.63
2023-03-02T06:03:07.220Z,12.80
2023-03-02T06:05:36.246Z,11.90
2023-03-02T06:08:05.727Z,11.23
2023-03-02T06:10:35.143Z,11.13
2023-03-02T06:13:05.758Z,10.52
2023-03-02T06:15:34.734Z,11.48
2023-03-02T06:18:03.794Z,12.10
2023-03-02T06:20:33.102Z,11.07
2023-03-02T06:23:02.070Z,11.15
2023-03-02T06:25:31.592Z,12.32
2023-03-02T06:28:00.608Z,12.63
2023-03-02T06:30:30.879Z,12.00
2023-03-02T06:33:00.253Z,10.57
2023-03-02T06:35:29.381Z,12.32
2023-03-02T06:37:58.506Z,11.43
2023-03-02T06:40:27.630Z,12.25
2023-03-02T06:42:56.571Z,12.35
2023-03-02T06:45:25.771Z,12.18
2023-03-02T06:47:56.205Z,11.88
2023-03-02T06:50:25.175Z,11.32
2023-03-02T06:52:54.092Z,12.52
2023-03-02T06:55:23.362Z,11.63
2023-03-02T06:57:52.435Z,10.98
2023-03-02T07:00:26.257Z,14.02
2023-03-02T07:02:56.796Z,11.55
2023-03-02T07:05:26.126Z,12.00
2023-03-02T07:07:55.042Z,12.93
2023-03-02T07:10:23.969Z,12.00
2023-03-02T07:12:53.571Z,14.40
2023-03-02T07:15:22.702Z,11.85
2023-03-02T07:17:51.638Z,13.40
2023-03-02T07:20:22.470Z,13.38
2023-03-02T07:22:51.438Z,12.60
2023-03-02T07:25:21.121Z,14.30
2023-03-02T07:27:50.045Z,13.80
2023-03-02T07:30:21.156Z,15.35
2023-03-02T07:32:50.555Z,14.88
2023-03-02T07:35:19.803Z,13.77
2023-03-02T07:37:50.152Z,13.95
2023-03-02T07:40:19.235Z,14.80
2023-03-02T07:42:48.142Z,14.30
2023-03-02T07:45:20.256Z,14.60
2023-03-02T07:47:49.211Z,14.82
2023-03-02T07:50:18.278Z,13.05
2023-03-02T07:52:47.232Z,14.00
2023-03-02T07:55:17.714Z,14.90
2023-03-02T07:57:47.334Z,14.50
2023-03-02T08:00:17.133Z,14.82
2023-03-02T08:02:46.517Z,14.75
2023-03-02T08:05:16.911Z,14.13
2023-03-02T08:07:48.452Z,14.45
2023-03-02T08:10:19.155Z,16.38
2023-03-02T08:12:48.117Z,13.40
2023-03-02T08:15:17.094Z,14.55
2023-03-02T08:17:46.161Z,14.32
2023-03-02T08:20:15.764Z,14.80
2023-03-02T08:22:44.916Z,14.50
2023-03-02T08:25:13.853Z,14.07
2023-03-02T08:27:46.018Z,14.48
2023-03-02T08:30:15.342Z,15.65
2023-03-02T08:32:44.533Z,15.65
2023-03-02T08:35:13.923Z,17.88
2023-03-02T08:37:42.773Z,16.48
2023-03-02T08:40:12.315Z,15.02
2023-03-02T08:42:41.321Z,16.15
2023-03-02T08:45:12.361Z,15.05
2023-03-02T08:47:41.373Z,15.48
2023-03-02T08:50:11.544Z,16.08
2023-03-02T08:52:40.561Z,14.80
2023-03-02T08:55:10.538Z,16.20
2023-03-02T08:57:41.594Z,14.85
2023-03-02T09:00:14.831Z,14.38
2023-03-02T09:02:44.047Z,15.98
2023-03-02T09:05:13.669Z,15.40
2023-03-02T09:07:43.074Z,14.50
2023-03-02T09:10:12.983Z,14.65
2023-03-02T09:12:42.078Z,15.75
2023-03-02T09:15:12.874Z,15.73
2023-03-02T09:17:41.862Z,12.95
2023-03-02T09:20:11.747Z,11.73
2023-03-02T09:22:40.796Z,15.55
2023-03-02T09:25:10.212Z,14.77
2023-03-02T09:27:39.408Z,16.13
2023-03-02T09:30:09.783Z,18.15
2023-03-02T09:32:40.522Z,15.20
2023-03-02T09:35:10.882Z,15.50
2023-03-02T09:37:40.702Z,16.33
2023-03-02T09:40:17.596Z,14.60
2023-03-02T09:42:56.011Z,16.77
2023-03-02T09:45:36.425Z,15.10
2023-03-02T09:48:15.055Z,15.13
2023-03-02T09:50:50.826Z,12.95
2023-03-02T09:53:30.172Z,15.60
2023-03-02T09:56:01.832Z,13.32
2023-03-02T09:58:33.462Z,9.70
2023-03-02T10:01:03.922Z,14.82
2023-03-02T10:03:38.339Z,12.75
2023-03-02T10:06:07.716Z,15.13
2023-03-02T10:08:40.178Z,13.25
2023-03-02T10:11:14.298Z,12.65
2023-03-02T10:13:47.714Z,12.07
2023-03-02T10:16:21.204Z,13.93
2023-03-02T10:18:54.214Z,12.93
2023-03-02T10:21:24.827Z,14.40
2023-03-02T10:23:57.684Z,13.82
2023-03-02T10:26:39.388Z,15.05
2023-03-02T10:29:20.854Z,14.93
2023-03-02T10:31:52.909Z,11.05
2023-03-02T10:34:24.496Z,12.40
2023-03-02T10:36:54.869Z,13.85
2023-03-02T10:39:23.961Z,13.95
2023-03-02T10:41:55.154Z,14.68
2023-03-02T10:44:26.803Z,14.43
2023-03-02T10:46:55.907Z,11.88
2023-03-02T10:49:27.769Z,16.85
2023-03-02T10:51:57.809Z,14.45
2023-03-02T10:54:29.930Z,12.93
2023-03-02T10:57:00.136Z,13.43
2023-03-02T10:59:37.198Z,12.20
2023-03-02T11:02:14.039Z,10.82
2023-03-02T11:04:44.527Z,13.23
2023-03-02T11:07:17.516Z,8.52
2023-03-02T11:09:56.912Z,11.05
2023-03-02T11:12:26.051Z,8.57
2023-03-02T11:15:03.736Z,11.65
2023-03-02T11:17:33.730Z,12.93
2023-03-02T11:20:04.921Z,11.63
2023-03-02T11:22:38.306Z,12.52
2023-03-02T11:25:08.320Z,12.40
2023-03-02T11:27:38.487Z,11.88
2023-03-02T11:30:13.924Z,11.45
2023-03-02T11:32:45.148Z,10.23
2023-03-02T11:35:16.746Z,10.18
2023-03-02T11:37:48.580Z,9.73
2023-03-02T11:40:21.198Z,11.20
2023-03-02T11:42:50.739Z,10.98
2023-03-02T11:45:22.737Z,10.23
2023-03-02T11:48:02.557Z,9.32
2023-03-02T11:50:35.410Z,10.05
2023-03-02T11:53:07.045Z,10.10
2023-03-02T11:55:39.672Z,11.43
2023-03-02T11:58:09.093Z,7.90
2023-03-02T12:00:39.476Z,10.85
2023-03-02T12:03:10.540Z,9.30
2023-03-02T12:05:41.297Z,11.05
2023-03-02T12:08:31.239Z,11.13
2023-03-02T12:11:01.239Z,8.35
2023-03-02T12:13:31.763Z,9.90
2023-03-02T12:16:01.412Z,11.05
2023-03-02T12:18:32.585Z,8.48
2023-03-02T12:21:05.132Z,9.77
2023-03-02T12:23:34.962Z,10.63
2023-03-02T12:26:05.948Z,10.20
2023-03-02T12:28:36.157Z,10.35
2023-03-02T12:31:13.151Z,9.35
2023-03-02T12:33:49.185Z,7.97
2023-03-02T12:36:21.769Z,8.00
2023-03-02T12:38:57.103Z,8.82
2023-03-02T12:41:38.958Z,9.57
2023-03-02T12:44:16.077Z,11.13
2023-03-02T12:46:46.448Z,9.23
2023-03-02T12:49:18.862Z,10.20
2023-03-02T12:51:54.678Z,9.27
2023-03-02T12:54:25.237Z,8.93
2023-03-02T12:57:06.262Z,8.35
2023-03-02T12:59:35.534Z,8.02
2023-03-02T13:02:14.975Z,7.88
2023-03-02T13:04:44.726Z,8.45
2023-03-02T13:07:18.850Z,8.07
2023-03-02T13:09:56.559Z,5.63
2023-03-02T13:12:28.111Z,7.78
2023-03-02T13:14:58.129Z,6.07
2023-03-02T13:17:29.568Z,6.75
2023-03-02T13:19:58.907Z,7.22
2023-03-02T13:22:29.842Z,6.78
2023-03-02T13:25:00.475Z,6.82
2023-03-02T13:27:30.033Z,8.60
2023-03-02T13:30:10.129Z,7.25
2023-03-02T13:32:41.968Z,6.88
2023-03-02T13:35:18.183Z,6.60
2023-03-02T13:37:48.745Z,6.13
2023-03-02T13:40:37.746Z,6.60
2023-03-02T13:43:08.696Z,6.35
2023-03-02T13:45:38.448Z,7.17
2023-03-02T13:48:16.375Z,6.30
2023-03-02T13:50:53.413Z,6.82
2023-03-02T13:53:24.426Z,6.72
2023-03-02T13:55:54.392Z,6.72
2023-03-02T13:58:24.953Z,6.30
2023-03-02T14:00:54.400Z,6.50
2023-03-02T14:03:25.038Z,6.30
2023-03-02T14:05:54.538Z,6.50
2023-03-02T14:08:25.580Z,6.00
2023-03-02T14:10:57.313Z,4.07
2023-03-02T14:13:28.097Z,4.97
2023-03-02T14:15:57.235Z,4.82
2023-03-02T14:18:29.772Z,4.78
2023-03-02T14:20:59.385Z,5.63
2023-03-02T14:23:30.520Z,4.70
2023-03-02T14:26:00.092Z,4.53
2023-03-02T14:28:31.663Z,4.43
2023-03-02T14:31:01.144Z,5.22
2023-03-02T14:33:30.828Z,4.45
2023-03-02T14:36:01.182Z,4.90
2023-03-02T14:38:32.605Z,5.57
2023-03-02T14:41:01.713Z,4.75
2023-03-02T14:43:30.906Z,4.57
2023-03-02T14:46:00.292Z,5.78
2023-03-02T14:48:29.732Z,5.43
2023-03-02T14:51:01.098Z,4.80
2023-03-02T14:53:34.862Z,4.05
2023-03-02T14:56:04.040Z,3.97
2023-03-02T14:58:34.423Z,3.22
2023-03-02T15:01:03.622Z,4.60
2023-03-02T15:03:32.620Z,5.28
2023-03-02T15:06:02.366Z,4.28
2023-03-02T15:08:32.822Z,4.60
2023-03-02T15:11:02.083Z,5.28
2023-03-02T15:13:31.727Z,4.10
2023-03-02T15:16:00.933Z,5.07
2023-03-02T15:18:31.193Z,5.13
2023-03-02T15:21:00.394Z,4.32
2023-03-02T15:23:29.473Z,4.60
2023-03-02T15:26:01.849Z,4.50
2023-03-02T15:28:31.356Z,4.63
2023-03-02T15:31:07.893Z,4.75
2023-03-02T15:33:37.172Z,4.22
2023-03-02T15:36:07.502Z,3.65
2023-03-02T15:38:37.636Z,3.53
2023-03-02T15:41:09.215Z,3.28
2023-03-02T15:43:38.392Z,5.43
2023-03-02T15:46:09.424Z,5.00
2023-03-02T15:48:39.305Z,4.50
2023-03-02T15:51:09.750Z,4.88
2023-03-02T15:53:39.727Z,4.45
2023-03-02T15:56:12.303Z,4.57
2023-03-02T15:58:41.761Z,4.25
2023-03-02T16:01:11.558Z,4.47
2023-03-02T16:03:41.196Z,4.57
2023-03-02T16:06:10.510Z,4.20
2023-03-02T16:08:39.973Z,4.22
2023-03-02T16:11:11.917Z,3.92
2023-03-02T16:13:41.507Z,5.20
2023-03-02T16:16:11.480Z,3.60
2023-03-02T16:18:40.479Z,4.72
2023-03-02T16:21:13.725Z,4.82
2023-03-02T16:23:42.671Z,6.47
2023-03-02T16:26:13.872Z,4.10
2023-03-02T16:28:42.972Z,4.55
2023-03-02T16:31:13.183Z,4.95
2023-03-02T16:33:43.043Z,5.88
2023-03-02T16:36:12.200Z,4.53
2023-03-02T16:38:41.568Z,3.50
2023-03-02T16:41:15.956Z,4.40
2023-03-02T16:43:46.455Z,4.47
2023-03-02T16:46:16.160Z,4.03
2023-03-02T16:48:46.022Z,3.33
2023-03-02T16:51:15.714Z,3.58
2023-03-02T16:53:44.725Z,3.85
2023-03-02T16:56:15.548Z,4.00
2023-03-02T16:58:44.751Z,3.90
2023-03-02T17:01:14.821Z,4.18
2023-03-02T17:03:44.385Z,3.53
2023-03-02T17:06:14.290Z,3.83
2023-03-02T17:08:44.064Z,4.40
2023-03-02T17:11:13.040Z,3.92
2023-03-02T17:13:43.452Z,4.68
2023-03-02T17:16:12.653Z,4.43
2023-03-02T17:18:41.849Z,4.50
2023-03-02T17:21:10.985Z,5.43
2023-03-02T17:23:39.973Z,5.03
2023-03-02T17:26:09.237Z,4.45
2023-03-02T17:28:39.244Z,4.45
2023-03-02T17:31:09.723Z,4.60
2023-03-02T17:33:39.891Z,4.68
2023-03-02T17:36:12.100Z,6.60
2023-03-02T17:38:41.340Z,6.65
2023-03-02T17:41:10.997Z,8.35
2023-03-02T17:43:40.784Z,7.93
2023-03-02T17:46:12.679Z,7.00
2023-03-02T17:48:42.113Z,7.35
2023-03-02T17:51:11.837Z,6.88
2023-03-02T17:53:41.466Z,7.85
2023-03-02T17:56:10.810Z,6.63
2023-03-02T17:58:45.055Z,8.23
2023-03-02T18:01:16.740Z,6.80
2023-03-02T18:03:46.222Z,6.65
2023-03-02T18:06:17.982Z,4.63
2023-03-02T18:08:46.950Z,6.22
2023-03-02T18:11:15.947Z,5.25
2023-03-02T18:13:44.967Z,4.85
2023-03-02T18:16:14.375Z,4.43
2023-03-02T18:18:44.753Z,4.68
2023-03-02T18:21:13.805Z,4.22
2023-03-02T18:23:44.720Z,4.18
2023-03-02T18:26:14.178Z,5.03
2023-03-02T18:28:43.477Z,4.60
2023-03-02T18:31:13.757Z,5.25
2023-03-02T18:33:42.864Z,4.28
2023-03-02T18:36:14.448Z,5.30
2023-03-02T18:38:43.809Z,4.82
2023-03-02T18:41:14.348Z,5.13
2023-03-02T18:43:44.502Z,5.35
2023-03-02T18:46:19.596Z,5.00
2023-03-02T18:48:50.251Z,4.65
2023-03-02T18:51:21.156Z,5.50
2023-03-02T18:53:51.023Z,5.20
2023-03-02T18:56:20.394Z,5.00
2023-03-02T18:58:51.460Z,5.38
2023-03-02T19:01:21.296Z,4.70
2023-03-02T19:03:51.026Z,5.22
2023-03-02T19:06:23.031Z,5.22
2023-03-02T19:08:52.104Z,5.20
2023-03-02T19:11:22.019Z,3.70
2023-03-02T19:13:52.689Z,4.50
2023-03-02T19:16:21.787Z,4.63
2023-03-02T19:18:51.100Z,3.30
2023-03-02T19:21:21.829Z,4.05
2023-03-02T19:23:50.869Z,3.95
2023-03-02T19:26:20.163Z,3.60
2023-03-02T19:28:49.274Z,3.10
2023-03-02T19:31:18.393Z,3.22
2023-03-02T19:33:47.561Z,3.17
2023-03-02T19:36:16.877Z,3.35
2023-03-02T19:38:47.485Z,3.15
2023-03-02T19:41:17.582Z,1.88
2023-03-02T19:43:47.038Z,3.40
2023-03-02T19:46:16.927Z,3.65
2023-03-02T19:48:45.982Z,3.42
2023-03-02T19:51:16.021Z,2.90
2023-03-02T19:53:46.985Z,2.35
2023-03-02T19:56:18.252Z,2.95
2023-03-02T19:58:53.880Z,2.97
2023-03-02T20:01:25.073Z,3.45
2023-03-02T20:03:54.528Z,2.80
2023-03-02T20:06:24.940Z,3.03
2023-03-02T20:08:55.046Z,2.03
2023-03-02T20:11:27.203Z,3.03
2023-03-02T20:13:57.326Z,2.13
2023-03-02T20:16:26.380Z,2.58
2023-03-02T20:18:55.945Z,2.10
2023-03-02T20:21:25.917Z,2.63
2023-03-02T20:23:55.297Z,3.05
2023-03-02T20:26:26.096Z,2.58
2023-03-02T20:28:56.484Z,2.60
2023-03-02T20:31:25.917Z,2.75
2023-03-02T20:33:56.232Z,2.53
2023-03-02T20:36:27.096Z,2.38
2023-03-02T20:38:57.859Z,2.50
2023-03-02T20:41:28.495Z,2.50
2023-03-02T20:43:58.348Z,2.28
2023-03-02T20:46:29.246Z,3.13
2023-03-02T20:48:58.963Z,2.87
2023-03-02T20:51:28.890Z,2.70
2023-03-02T20:53:58.434Z,3.75
2023-03-02T20:56:29.014Z,3.03
2023-03-02T20:58:58.169Z,2.65
2023-03-02T21:01:29.689Z,2.70
2023-03-02T21:03:59.255Z,2.75
2023-03-02T21:06:29.691Z,2.95
2023-03-02T21:09:00.138Z,2.30
2023-03-02T21:11:31.820Z,3.25
2023-03-02T21:14:02.007Z,2.90
2023-03-02T21:16:35.789Z,2.50
2023-03-02T21:19:05.240Z,3.10
2023-03-02T21:21:41.436Z,2.47
2023-03-02T21:24:11.485Z,2.95
2023-03-02T21:26:44.264Z,2.47
2023-03-02T21:29:14.847Z,2.97
2023-03-02T21:31:44.890Z,3.05
2023-03-02T21:34:14.265Z,3.05
2023-03-02T21:36:43.943Z,3.53
2023-03-02T21:39:16.495Z,2.38
2023-03-02T21:41:46.867Z,3.47
2023-03-02T21:44:15.986Z,3.50
2023-03-02T21:46:45.344Z,3.60
2023-03-02T21:49:16.673Z,3.20
2023-03-02T21:51:46.730Z,3.25
2023-03-02T21:54:16.898Z,3.37
2023-03-02T21:56:47.352Z,3.25
2023-03-02T21:59:16.471Z,3.70
2023-03-02T22:01:45.516Z,3.83
2023-03-02T22:04:14.529Z,3.97
2023-03-02T22:06:44.299Z,4.97
2023-03-02T22:09:13.869Z,3.38
2023-03-02T22:11:43.041Z,3.92
2023-03-02T22:14:15.208Z,3.53
2023-03-02T22:16:46.380Z,3.22
2023-03-02T22:19:25.828Z,5.47
2023-03-02T22:21:56.995Z,4.13
2023-03-02T22:24:26.763Z,5.03
2023-03-02T22:26:59.186Z,4.68
2023-03-02T22:29:30.643Z,3.75
2023-03-02T22:32:06.329Z,4.38
2023-03-02T22:34:37.686Z,3.88
2023-03-02T22:37:12.013Z,4.47
2023-03-02T22:39:42.386Z,4.07
2023-03-02T22:42:14.343Z,3.97
2023-03-02T22:47:16.732Z,3.97
2023-03-02T22:49:45.868Z,4.00
2023-03-02T22:52:17.418Z,4.65
2023-03-02T22:54:47.481Z,4.03
2023-03-02T22:57:29.001Z,4.60
2023-03-02T23:00:05.735Z,4.88
2023-03-02T23:02:38.693Z,4.40
2023-03-02T23:05:20.379Z,4.22
2023-03-02T23:07:50.013Z,4.80
2023-03-02T23:10:19.397Z,3.00
2023-03-02T23:12:48.884Z,3.92
2023-03-02T23:15:21.193Z,4.05
2023-03-02T23:17:51.724Z,4.45
2023-03-02T23:20:20.840Z,4.78
2023-03-02T23:22:50.529Z,3.95
2023-03-02T23:25:19.989Z,3.70
2023-03-02T23:27:49.109Z,3.65
2023-03-02T23:30:22.891Z,3.25
2023-03-02T23:32:54.887Z,3.28
2023-03-02T23:35:24.227Z,4.45
2023-03-02T23:37:53.793Z,3.50
2023-03-02T23:40:23.316Z,3.38
2023-03-02T23:42:52.846Z,2.08
2023-03-02T23:45:22.524Z,3.17
2023-03-02T23:47:51.988Z,3.83
2023-03-02T23:50:22.352Z,3.80
2023-03-02T23:52:51.634Z,4.72
2023-03-02T23:55:22.931Z,3.78
2023-03-02T23:57:51.998Z,3.80
